createdAt,value
2019-02-18T00:04:22.745Z,-0.70
2019-02-18T00:09:26.936Z,-0.74
2019-02-18T00:14:30.995Z,-0.84
2019-02-18T00:19:42.220Z,-0.88
2019-02-18T00:24:46.338Z,-1.00
2019-02-18T00:29:50.548Z,-1.14
2019-02-18T00:34:54.642Z,-1.26
2019-02-18T00:39:58.807Z,-1.27
2019-02-18T00:45:03.071Z,-1.45
2019-02-18T00:50:07.372Z,-1.54
2019-02-18T00:55:11.566Z,-1.55
2019-02-18T01:00:16.288Z,-1.57
2019-02-18T01:05:21.795Z,-1.60
2019-02-18T01:10:26.512Z,-1.66
2019-02-18T01:15:30.687Z,-1.65
2019-02-18T01:20:34.807Z,-1.69
2019-02-18T01:25:39.257Z,-1.80
2019-02-18T01:30:43.293Z,-1.92
2019-02-18T01:41:14.390Z,-2.04
2019-02-18T01:46:18.443Z,-2.08
2019-02-18T01:51:22.575Z,-2.05
2019-02-18T01:56:26.803Z,-2.07
2019-02-18T02:01:30.832Z,-2.13
2019-02-18T02:06:34.947Z,-2.26
2019-02-18T02:11:39.050Z,-2.29
2019-02-18T02:16:43.170Z,-2.32
2019-02-18T02:21:47.334Z,-2.29
2019-02-18T02:27:10.347Z,-2.35
2019-02-18T02:32:14.424Z,-2.35
2019-02-18T02:37:18.600Z,-2.38
2019-02-18T02:42:23.044Z,-2.32
2019-02-18T02:47:27.137Z,-2.29
2019-02-18T02:52:31.228Z,-2.32
2019-02-18T02:57:35.751Z,-2.33
2019-02-18T03:02:39.903Z,-2.39
2019-02-18T03:07:43.981Z,-2.53
2019-02-18T03:12:48.076Z,-2.50
2019-02-18T03:17:52.143Z,-2.54
2019-02-18T03:22:56.277Z,-2.56
2019-02-18T03:28:38.516Z,-2.50
2019-02-18T03:33:49.133Z,-2.56
2019-02-18T03:38:53.204Z,-2.69
2019-02-18T03:43:57.324Z,-2.73
2019-02-18T03:49:01.441Z,-2.76
2019-02-18T03:54:05.679Z,-2.89
2019-02-18T03:59:09.730Z,-2.93
2019-02-18T04:04:13.934Z,-2.94
2019-02-18T04:09:18.107Z,-2.99
2019-02-18T04:14:22.130Z,-2.92
2019-02-18T04:19:26.208Z,-2.82
2019-02-18T04:24:30.305Z,-2.90
2019-02-18T04:29:34.342Z,-3.00
2019-02-18T04:34:38.394Z,-3.15
2019-02-18T04:39:42.840Z,-3.17
2019-02-18T04:44:47.005Z,-3.23
2019-02-18T04:49:51.077Z,-3.32
2019-02-18T04:54:55.505Z,-3.31
2019-02-18T05:05:15.240Z,-3.32
2019-02-18T05:10:19.302Z,-3.31
2019-02-18T05:15:23.632Z,-3.38
2019-02-18T05:20:27.793Z,-3.33
2019-02-18T05:30:47.484Z,-3.44
2019-02-18T05:35:51.560Z,-3.42
2019-02-18T05:40:55.788Z,-3.43
2019-02-18T05:45:59.939Z,-3.47
2019-02-18T05:51:05.745Z,-3.50
2019-02-18T06:01:25.037Z,-3.46
2019-02-18T06:06:29.125Z,-3.34
2019-02-18T06:11:33.517Z,-3.41
2019-02-18T06:16:56.656Z,-3.47
2019-02-18T06:22:00.730Z,-3.38
2019-02-18T06:27:04.783Z,-3.35
2019-02-18T06:32:08.865Z,-3.32
2019-02-18T06:37:12.872Z,-3.23
2019-02-18T06:42:16.961Z,-3.12
2019-02-18T06:47:21.036Z,-3.04
2019-02-18T06:52:25.106Z,-2.96
2019-02-18T06:57:29.195Z,-2.88
2019-02-18T07:02:38.616Z,-2.78
2019-02-18T07:08:01.764Z,-2.61
2019-02-18T07:13:05.842Z,-2.44
2019-02-18T07:18:10.314Z,-2.17
2019-02-18T07:23:14.410Z,-1.71
2019-02-18T07:28:18.784Z,-1.35
2019-02-18T07:33:22.903Z,-0.95
2019-02-18T07:38:27.284Z,-0.67
2019-02-18T07:43:31.391Z,-0.42
2019-02-18T07:48:36.776Z,-0.11
2019-02-18T07:53:47.646Z,0.28
2019-02-18T07:58:51.763Z,0.64
2019-02-18T08:03:55.848Z,1.04
2019-02-18T08:08:59.977Z,1.36
2019-02-18T08:14:04.073Z,1.64
2019-02-18T08:19:09.832Z,1.88
2019-02-18T08:24:13.942Z,2.20
2019-02-18T08:29:17.995Z,2.49
2019-02-18T08:34:22.049Z,2.79
2019-02-18T08:39:26.204Z,3.08
2019-02-18T08:44:30.355Z,3.47
2019-02-18T08:49:34.413Z,3.89
2019-02-18T08:59:54.117Z,4.56
2019-02-18T09:04:58.218Z,5.04
2019-02-18T09:15:17.782Z,5.53
2019-02-18T09:20:21.844Z,5.91
2019-02-18T09:25:25.868Z,6.14
2019-02-18T09:30:29.857Z,6.44
2019-02-18T09:35:33.899Z,6.80
2019-02-18T09:40:44.703Z,6.91
2019-02-18T09:45:49.908Z,6.99
2019-02-18T09:50:53.967Z,7.29
2019-02-18T10:01:13.360Z,7.85
2019-02-18T10:06:17.438Z,8.03
2019-02-18T10:11:21.494Z,8.42
2019-02-18T10:16:25.639Z,8.98
2019-02-18T10:21:29.689Z,8.98
2019-02-18T10:26:52.839Z,9.88
2019-02-18T10:31:56.901Z,9.88
2019-02-18T10:37:00.980Z,11.16
2019-02-18T10:42:05.074Z,13.34
2019-02-18T10:47:09.110Z,15.43
2019-02-18T10:52:13.269Z,16.97
2019-02-18T10:57:17.390Z,18.13
2019-02-18T11:02:23.115Z,18.03
2019-02-18T11:07:28.877Z,18.16
2019-02-18T11:12:32.904Z,18.03
2019-02-18T11:17:39.165Z,18.78
2019-02-18T11:22:48.590Z,18.64
2019-02-18T11:27:52.630Z,18.54
2019-02-18T11:33:03.950Z,17.65
2019-02-18T11:38:08.047Z,17.73
2019-02-18T11:43:23.142Z,18.38
2019-02-18T11:48:27.217Z,18.20
2019-02-18T11:53:31.345Z,17.53
2019-02-18T11:58:35.469Z,17.35
2019-02-18T12:03:40.013Z,17.25
2019-02-18T12:08:45.798Z,16.80
2019-02-18T12:13:49.900Z,16.47
2019-02-18T12:18:53.942Z,16.40
2019-02-18T12:23:57.990Z,16.49
2019-02-18T12:29:02.124Z,16.74
2019-02-18T12:34:06.176Z,16.83
2019-02-18T12:39:10.229Z,16.63
2019-02-18T12:49:51.042Z,16.99
2019-02-18T12:55:05.266Z,17.12
2019-02-18T13:05:32.428Z,16.53
2019-02-18T13:10:43.829Z,16.39
2019-02-18T13:15:47.895Z,16.52
2019-02-18T13:26:07.224Z,16.94
2019-02-18T13:31:12.997Z,16.70
2019-02-18T13:36:22.332Z,16.75
2019-02-18T13:41:32.299Z,16.97
2019-02-18T13:46:36.452Z,16.97
2019-02-18T13:51:40.612Z,16.93
2019-02-18T13:56:44.651Z,17.13
2019-02-18T14:01:48.679Z,17.02
2019-02-18T14:06:52.744Z,16.97
2019-02-18T14:11:56.957Z,16.71
2019-02-18T14:17:01.104Z,16.41
2019-02-18T14:22:13.022Z,16.70
2019-02-18T14:32:32.466Z,16.81
2019-02-18T14:37:38.205Z,16.76
2019-02-18T14:42:49.425Z,16.51
2019-02-18T14:47:55.253Z,16.58
2019-02-18T14:53:01.018Z,16.32
2019-02-18T14:58:07.538Z,16.31
2019-02-18T15:03:13.344Z,15.96
2019-02-18T15:08:17.569Z,15.98
2019-02-18T15:13:22.066Z,15.83
2019-02-18T15:18:26.268Z,15.48
2019-02-18T15:23:32.134Z,15.34
2019-02-18T15:28:37.913Z,14.92
2019-02-18T15:33:44.557Z,14.72
2019-02-18T15:38:50.345Z,14.15
2019-02-18T15:43:56.202Z,13.88
2019-02-18T15:49:01.974Z,13.36
2019-02-18T15:54:06.150Z,13.08
2019-02-18T15:59:11.885Z,12.64
2019-02-18T16:04:26.539Z,12.18
2019-02-18T16:09:32.608Z,11.68
2019-02-18T16:14:47.292Z,11.28
2019-02-18T16:19:53.419Z,10.69
2019-02-18T16:25:13.693Z,10.15
2019-02-18T16:30:19.773Z,9.64
2019-02-18T16:35:23.837Z,9.22
2019-02-18T16:40:27.910Z,8.78
2019-02-18T16:45:34.084Z,8.47
2019-02-18T16:50:48.977Z,7.95
2019-02-18T17:01:15.379Z,7.10
2019-02-18T17:06:21.100Z,7.01
2019-02-18T17:11:25.428Z,6.94
2019-02-18T17:16:36.622Z,6.61
2019-02-18T17:21:42.435Z,6.43
2019-02-18T17:26:46.552Z,6.30
2019-02-18T17:31:50.970Z,6.01
2019-02-18T17:37:14.197Z,5.83
2019-02-18T17:42:25.231Z,5.68
2019-02-18T17:47:34.983Z,5.47
2019-02-18T17:52:39.086Z,5.11
2019-02-18T17:57:43.244Z,4.88
2019-02-18T18:02:47.368Z,4.78
2019-02-18T18:07:51.858Z,4.53
2019-02-18T18:12:56.260Z,4.24
2019-02-18T18:18:00.787Z,4.11
2019-02-18T18:23:06.574Z,4.12
2019-02-18T18:28:10.692Z,3.96
2019-02-18T18:33:16.538Z,3.81
2019-02-18T18:38:20.645Z,3.60
2019-02-18T18:43:33.414Z,3.41
2019-02-18T18:48:36.340Z,3.27
2019-02-18T18:53:40.475Z,3.18
2019-02-18T18:58:55.149Z,3.12
2019-02-18T19:03:59.211Z,2.95
2019-02-18T19:09:11.237Z,2.93
2019-02-18T19:14:21.033Z,2.89
2019-02-18T19:19:25.240Z,2.74
2019-02-18T19:24:53.991Z,2.58
2019-02-18T19:36:06.549Z,2.25
2019-02-18T19:41:29.585Z,2.06
2019-02-18T19:52:30.695Z,1.65
2019-02-18T19:57:37.245Z,1.58
2019-02-18T20:07:57.269Z,1.46
2019-02-18T20:13:01.337Z,1.31
2019-02-18T20:18:05.415Z,1.25
2019-02-18T20:23:09.541Z,1.06
2019-02-18T20:28:13.680Z,0.96
2019-02-18T20:33:17.727Z,0.86
2019-02-18T20:38:29.009Z,0.69
2019-02-18T20:43:35.065Z,0.65
2019-02-18T20:48:47.334Z,0.62
2019-02-18T20:53:53.581Z,0.57
2019-02-18T20:59:17.459Z,0.53
2019-02-18T21:04:41.081Z,0.37
2019-02-18T21:09:45.643Z,0.28
2019-02-18T21:15:08.823Z,0.21
2019-02-18T21:25:28.080Z,0.20
2019-02-18T21:30:32.131Z,0.18
2019-02-18T21:35:36.289Z,0.11
2019-02-18T21:40:40.414Z,-0.02
2019-02-18T21:45:44.555Z,-0.07
2019-02-18T21:50:50.361Z,-0.02
2019-02-18T21:55:54.450Z,-0.11
2019-02-18T22:01:06.104Z,-0.14
2019-02-18T22:06:10.496Z,-0.09
2019-02-18T22:11:14.575Z,-0.11
2019-02-18T22:16:18.801Z,-0.23
2019-02-18T22:21:22.904Z,-0.34
2019-02-18T22:26:27.017Z,-0.41
2019-02-18T22:31:31.426Z,-0.45
2019-02-18T22:36:35.526Z,-0.36
2019-02-18T22:41:39.634Z,-0.37
2019-02-18T22:46:43.792Z,-0.40
2019-02-18T22:57:02.692Z,-0.66
2019-02-18T23:02:14.331Z,-0.75
2019-02-18T23:07:18.381Z,-0.81
2019-02-18T23:12:22.466Z,-0.89
2019-02-18T23:17:26.601Z,-0.92
2019-02-18T23:22:30.661Z,-0.98
2019-02-18T23:27:34.732Z,-1.04
2019-02-18T23:37:54.145Z,-1.26
2019-02-18T23:42:59.891Z,-1.27
2019-02-18T23:48:04.019Z,-1.28
2019-02-18T23:53:08.105Z,-1.20
2019-02-18T23:58:12.195Z,-1.14
